Aérodrome :
LOGIN :

S'inscrire | Disclaimer

   EN    FR    IT 

 










Légende :    VFR   VFR Marginal   IFR   IFR Intensif   IFR Très Intensif
Visi : 
Plafond : 
>= 8 km
>= 3000ft
5 à 8 km
1000 à 3000 ft
1500m à 5 km
500 à 1000 ft
800 à 1500m
200 à 500 ft
< 800m
< 200 ft
Symboles :   Orages  Brouillard  Fortes neiges  Fortes précipitations  Vent > 20 kt
SIGMETs :   Divers  Orages  Givrage  Turbulence  Onde Orograph.  Cendres Volcan.







- Altitude de l'aérodrome : 157 ft
- Code IATA : SXF


EDDB - Berlin Schönefeld

DERNIER METAR :
  • 182220Z 32008KT CAVOK 22/13 Q1015 NOSIG

METARs EXPIRÉS :
  • 182150Z 34008KT CAVOK 22/13 Q1015 NOSIG
  • 182120Z 34009KT CAVOK 22/13 Q1015 NOSIG
  • 182050Z 34009KT CAVOK 22/13 Q1015 NOSIG
  • 182020Z 34010KT CAVOK 23/13 Q1015 NOSIG
  • 181950Z 33008KT CAVOK 23/12 Q1015 NOSIG

TAF TAF EDDB
Valide du 18 à 18h jusqu'au 19 à 18h UTC


181700Z 1818/1918 30015KT CAVOK
BECMG 1818/1820 31010KT
PROB30
TEMPO 1906/1909 BKN012
Pas de NOTAMs connus pour ce terrain.



MET'MAP, la Météo Aéronautique d'un coup d'oeil ! - Copyright ORBIFLY Décembre 2007 - Disclaimer

ORBIFLY MET'MAP TEAM :

Programmation & Développement : Alexandra Zaïnal
Conception & Développement : Baudouin d'Aumeries
Co-Programmation & Développement : Marc-Olivier Méhu
Soutien technique & logistique : Manuel Goepfert

Contact : metmap@orbifly.com




SOURCES & CREDITS :

   NOAA